sensor_id;sensor_type;location;lat;lon;timestamp;pressure;altitude;pressure_sealevel;temperature;humidity
51239;BME280;38154;47.548;18.828;2022-07-15T00:01:46;98448.09;;;22.84;55.79
51239;BME280;38154;47.548;18.828;2022-07-15T00:04:12;98457.03;;;22.83;56.56
51239;BME280;38154;47.548;18.828;2022-07-15T00:06:38;98443.22;;;22.76;56.16
51239;BME280;38154;47.548;18.828;2022-07-15T00:09:04;98438.66;;;22.78;55.83
51239;BME280;38154;47.548;18.828;2022-07-15T00:11:29;98446.66;;;22.78;56.11
51239;BME280;38154;47.548;18.828;2022-07-15T00:13:55;98436.09;;;22.76;56.03
51239;BME280;38154;47.548;18.828;2022-07-15T00:16:21;98428.19;;;22.75;56.59
51239;BME280;38154;47.548;18.828;2022-07-15T00:18:47;98425.69;;;22.72;56.80
51239;BME280;38154;47.548;18.828;2022-07-15T00:21:13;98411.03;;;22.65;57.40
51239;BME280;38154;47.548;18.828;2022-07-15T00:23:39;98388.47;;;22.56;57.74
51239;BME280;38154;47.548;18.828;2022-07-15T00:26:05;98384.25;;;22.52;57.45
51239;BME280;38154;47.548;18.828;2022-07-15T00:28:31;98372.63;;;22.54;57.62
51239;BME280;38154;47.548;18.828;2022-07-15T00:30:57;98368.47;;;22.49;57.88
51239;BME280;38154;47.548;18.828;2022-07-15T00:33:22;98381.84;;;22.47;58.38
51239;BME280;38154;47.548;18.828;2022-07-15T00:35:48;98379.44;;;22.42;59.01
51239;BME280;38154;47.548;18.828;2022-07-15T00:38:15;98373.34;;;22.40;58.72
51239;BME280;38154;47.548;18.828;2022-07-15T00:40:43;98362.81;;;22.39;59.13
51239;BME280;38154;47.548;18.828;2022-07-15T00:43:09;98363.75;;;22.38;59.18
51239;BME280;38154;47.548;18.828;2022-07-15T00:45:35;98357.75;;;22.34;59.64
51239;BME280;38154;47.548;18.828;2022-07-15T00:48:01;98362.19;;;22.34;59.18
51239;BME280;38154;47.548;18.828;2022-07-15T00:50:29;98365.88;;;22.31;59.41
51239;BME280;38154;47.548;18.828;2022-07-15T00:53:00;98376.69;;;22.27;59.45
51239;BME280;38154;47.548;18.828;2022-07-15T00:55:30;98390.22;;;22.22;59.91
51239;BME280;38154;47.548;18.828;2022-07-15T00:58:00;98410.91;;;22.15;60.04
51239;BME280;38154;47.548;18.828;2022-07-15T01:00:26;98409.44;;;22.10;60.50
51239;BME280;38154;47.548;18.828;2022-07-15T01:02:52;98411.62;;;22.01;60.94
51239;BME280;38154;47.548;18.828;2022-07-15T01:05:20;98405.94;;;21.92;61.46
51239;BME280;38154;47.548;18.828;2022-07-15T01:07:47;98425.00;;;21.82;61.85
51239;BME280;38154;47.548;18.828;2022-07-15T01:10:16;98436.53;;;21.81;61.81
51239;BME280;38154;47.548;18.828;2022-07-15T01:12:42;98438.41;;;21.79;61.76
51239;BME280;38154;47.548;18.828;2022-07-15T01:15:09;98443.03;;;21.93;60.65
51239;BME280;38154;47.548;18.828;2022-07-15T01:17:35;98444.69;;;21.96;60.46
51239;BME280;38154;47.548;18.828;2022-07-15T01:20:00;98444.06;;;21.91;60.53
51239;BME280;38154;47.548;18.828;2022-07-15T01:22:26;98447.56;;;21.91;60.50
51239;BME280;38154;47.548;18.828;2022-07-15T01:24:53;98450.28;;;21.90;60.96
51239;BME280;38154;47.548;18.828;2022-07-15T01:27:19;98447.75;;;22.05;60.71
51239;BME280;38154;47.548;18.828;2022-07-15T01:29:44;98447.47;;;22.10;60.87
51239;BME280;38154;47.548;18.828;2022-07-15T01:32:10;98446.16;;;22.01;61.20
51239;BME280;38154;47.548;18.828;2022-07-15T01:34:37;98436.25;;;21.87;61.83
51239;BME280;38154;47.548;18.828;2022-07-15T01:37:03;98446.53;;;21.76;62.32
51239;BME280;38154;47.548;18.828;2022-07-15T01:39:29;98450.66;;;21.82;62.21
51239;BME280;38154;47.548;18.828;2022-07-15T01:41:55;98439.75;;;21.88;62.43
51239;BME280;38154;47.548;18.828;2022-07-15T01:44:21;98429.28;;;21.85;62.85
51239;BME280;38154;47.548;18.828;2022-07-15T01:46:47;98418.06;;;21.97;62.13
51239;BME280;38154;47.548;18.828;2022-07-15T01:49:13;98418.53;;;22.05;62.64
51239;BME280;38154;47.548;18.828;2022-07-15T01:51:55;98406.72;;;22.11;62.36
51239;BME280;38154;47.548;18.828;2022-07-15T01:54:26;98408.37;;;22.14;62.25
51239;BME280;38154;47.548;18.828;2022-07-15T01:56:54;98418.03;;;22.15;62.33
51239;BME280;38154;47.548;18.828;2022-07-15T01:59:21;98419.62;;;22.19;61.66
51239;BME280;38154;47.548;18.828;2022-07-15T02:01:52;98409.44;;;22.10;61.92
51239;BME280;38154;47.548;18.828;2022-07-15T02:04:18;98393.13;;;22.17;60.10
51239;BME280;38154;47.548;18.828;2022-07-15T02:06:45;98400.41;;;22.31;58.90
51239;BME280;38154;47.548;18.828;2022-07-15T02:09:12;98398.13;;;22.41;58.08
51239;BME280;38154;47.548;18.828;2022-07-15T02:11:37;98403.28;;;22.44;57.50
51239;BME280;38154;47.548;18.828;2022-07-15T02:14:04;98402.75;;;22.37;57.06
51239;BME280;38154;47.548;18.828;2022-07-15T02:16:30;98410.06;;;22.50;56.48
51239;BME280;38154;47.548;18.828;2022-07-15T02:18:56;98412.38;;;22.56;55.24
51239;BME280;38154;47.548;18.828;2022-07-15T02:21:23;98427.06;;;22.63;54.45
51239;BME280;38154;47.548;18.828;2022-07-15T02:23:49;98454.41;;;22.65;54.62
51239;BME280;38154;47.548;18.828;2022-07-15T02:26:15;98471.38;;;22.63;54.70
51239;BME280;38154;47.548;18.828;2022-07-15T02:28:41;98482.09;;;22.61;54.42
51239;BME280;38154;47.548;18.828;2022-07-15T02:31:08;98492.47;;;22.66;54.48
51239;BME280;38154;47.548;18.828;2022-07-15T02:33:34;98503.59;;;22.56;54.74
51239;BME280;38154;47.548;18.828;2022-07-15T02:36:00;98517.72;;;22.57;54.68
51239;BME280;38154;47.548;18.828;2022-07-15T02:38:25;98506.09;;;22.59;54.33
51239;BME280;38154;47.548;18.828;2022-07-15T02:40:51;98507.72;;;22.62;54.38
51239;BME280;38154;47.548;18.828;2022-07-15T02:43:17;98512.81;;;22.49;54.67
51239;BME280;38154;47.548;18.828;2022-07-15T02:45:43;98512.41;;;22.57;54.54
51239;BME280;38154;47.548;18.828;2022-07-15T02:48:09;98510.62;;;22.57;54.68
51239;BME280;38154;47.548;18.828;2022-07-15T02:50:35;98512.50;;;22.55;54.32
51239;BME280;38154;47.548;18.828;2022-07-15T02:53:02;98503.59;;;22.56;54.05
51239;BME280;38154;47.548;18.828;2022-07-15T02:55:28;98509.06;;;22.53;53.34
51239;BME280;38154;47.548;18.828;2022-07-15T02:57:54;98494.22;;;22.49;53.30
51239;BME280;38154;47.548;18.828;2022-07-15T03:00:20;98492.41;;;22.50;52.91
51239;BME280;38154;47.548;18.828;2022-07-15T03:02:47;98487.25;;;22.47;52.82
51239;BME280;38154;47.548;18.828;2022-07-15T03:05:14;98488.31;;;22.44;53.03
51239;BME280;38154;47.548;18.828;2022-07-15T03:07:40;98480.88;;;22.51;52.71
51239;BME280;38154;47.548;18.828;2022-07-15T03:10:07;98478.91;;;22.37;52.64
51239;BME280;38154;47.548;18.828;2022-07-15T03:12:34;98491.19;;;22.39;52.30
51239;BME280;38154;47.548;18.828;2022-07-15T03:15:00;98502.44;;;22.45;52.45
51239;BME280;38154;47.548;18.828;2022-07-15T03:17:27;98505.16;;;22.43;52.73
51239;BME280;38154;47.548;18.828;2022-07-15T03:19:53;98518.06;;;22.33;53.19
51239;BME280;38154;47.548;18.828;2022-07-15T03:22:24;98516.03;;;22.38;53.33
51239;BME280;38154;47.548;18.828;2022-07-15T03:24:51;98505.41;;;22.38;53.68
51239;BME280;38154;47.548;18.828;2022-07-15T03:27:17;98514.31;;;22.37;53.92
51239;BME280;38154;47.548;18.828;2022-07-15T03:29:43;98513.44;;;22.37;54.22
51239;BME280;38154;47.548;18.828;2022-07-15T03:32:09;98494.22;;;22.32;54.48
51239;BME280;38154;47.548;18.828;2022-07-15T03:34:42;98499.47;;;22.33;54.23
51239;BME280;38154;47.548;18.828;2022-07-15T03:37:08;98515.47;;;22.32;54.21
51239;BME280;38154;47.548;18.828;2022-07-15T03:39:34;98516.69;;;22.24;54.70
51239;BME280;38154;47.548;18.828;2022-07-15T03:42:00;98517.78;;;22.20;55.07
51239;BME280;38154;47.548;18.828;2022-07-15T03:44:26;98534.22;;;22.29;55.36
51239;BME280;38154;47.548;18.828;2022-07-15T03:46:52;98530.19;;;22.20;55.42
51239;BME280;38154;47.548;18.828;2022-07-15T03:49:18;98538.25;;;22.18;56.15
51239;BME280;38154;47.548;18.828;2022-07-15T03:51:44;98534.97;;;22.13;56.45
51239;BME280;38154;47.548;18.828;2022-07-15T03:54:10;98545.03;;;22.07;56.70
51239;BME280;38154;47.548;18.828;2022-07-15T03:56:36;98536.97;;;21.91;57.05
51239;BME280;38154;47.548;18.828;2022-07-15T03:59:02;98545.97;;;22.05;56.29
51239;BME280;38154;47.548;18.828;2022-07-15T04:01:29;98550.09;;;21.94;56.42
51239;BME280;38154;47.548;18.828;2022-07-15T04:03:56;98553.13;;;21.86;56.45
51239;BME280;38154;47.548;18.828;2022-07-15T04:06:21;98548.88;;;21.82;56.05
51239;BME280;38154;47.548;18.828;2022-07-15T04:08:48;98545.84;;;21.90;55.57
51239;BME280;38154;47.548;18.828;2022-07-15T04:11:15;98550.94;;;21.94;55.48
51239;BME280;38154;47.548;18.828;2022-07-15T04:13:41;98563.66;;;21.87;55.97
51239;BME280;38154;47.548;18.828;2022-07-15T04:16:08;98566.81;;;21.96;56.01
51239;BME280;38154;47.548;18.828;2022-07-15T04:18:34;98571.91;;;22.00;55.91
51239;BME280;38154;47.548;18.828;2022-07-15T04:21:00;98571.34;;;21.94;56.28
51239;BME280;38154;47.548;18.828;2022-07-15T04:23:26;98581.09;;;21.74;57.23
51239;BME280;38154;47.548;18.828;2022-07-15T04:25:52;98597.16;;;21.71;57.76
51239;BME280;38154;47.548;18.828;2022-07-15T04:28:20;98593.94;;;21.64;58.35
51239;BME280;38154;47.548;18.828;2022-07-15T04:30:46;98597.87;;;21.56;59.04
51239;BME280;38154;47.548;18.828;2022-07-15T04:33:12;98602.00;;;21.42;59.84
51239;BME280;38154;47.548;18.828;2022-07-15T04:35:38;98605.72;;;21.38;61.19
51239;BME280;38154;47.548;18.828;2022-07-15T04:38:04;98600.00;;;21.28;62.12
51239;BME280;38154;47.548;18.828;2022-07-15T04:40:30;98608.47;;;21.16;63.46
51239;BME280;38154;47.548;18.828;2022-07-15T04:42:58;98618.03;;;21.00;65.38
51239;BME280;38154;47.548;18.828;2022-07-15T04:45:25;98616.19;;;20.81;70.02
51239;BME280;38154;47.548;18.828;2022-07-15T04:47:51;98618.78;;;20.61;70.66
51239;BME280;38154;47.548;18.828;2022-07-15T04:50:17;98637.88;;;20.48;72.41
51239;BME280;38154;47.548;18.828;2022-07-15T04:53:02;98635.22;;;20.48;73.47
51239;BME280;38154;47.548;18.828;2022-07-15T04:55:27;98629.66;;;20.32;73.20
51239;BME280;38154;47.548;18.828;2022-07-15T04:57:53;98630.47;;;20.34;75.18
51239;BME280;38154;47.548;18.828;2022-07-15T05:00:19;98628.03;;;20.30;74.43
51239;BME280;38154;47.548;18.828;2022-07-15T05:02:45;98623.41;;;20.35;73.94
51239;BME280;38154;47.548;18.828;2022-07-15T05:05:11;98624.88;;;20.42;74.15
51239;BME280;38154;47.548;18.828;2022-07-15T05:07:37;98626.94;;;20.56;74.69
51239;BME280;38154;47.548;18.828;2022-07-15T05:10:04;98610.84;;;20.40;74.24
51239;BME280;38154;47.548;18.828;2022-07-15T05:12:31;98611.41;;;20.26;75.29
51239;BME280;38154;47.548;18.828;2022-07-15T05:14:56;98620.16;;;20.06;76.47
51239;BME280;38154;47.548;18.828;2022-07-15T05:17:22;98618.75;;;19.96;76.23
51239;BME280;38154;47.548;18.828;2022-07-15T05:19:48;98616.56;;;19.85;77.31
51239;BME280;38154;47.548;18.828;2022-07-15T05:22:14;98623.97;;;19.75;79.22
51239;BME280;38154;47.548;18.828;2022-07-15T05:24:42;98625.84;;;19.72;79.20
51239;BME280;38154;47.548;18.828;2022-07-15T05:27:07;98640.25;;;19.64;80.35
51239;BME280;38154;47.548;18.828;2022-07-15T05:29:33;98642.31;;;19.56;80.57
51239;BME280;38154;47.548;18.828;2022-07-15T05:31:59;98647.38;;;19.62;80.87
51239;BME280;38154;47.548;18.828;2022-07-15T05:34:25;98639.78;;;19.53;81.92
51239;BME280;38154;47.548;18.828;2022-07-15T05:36:51;98646.16;;;19.71;80.56
51239;BME280;38154;47.548;18.828;2022-07-15T05:39:16;98659.94;;;19.81;80.01
51239;BME280;38154;47.548;18.828;2022-07-15T05:41:42;98651.19;;;19.79;80.72
51239;BME280;38154;47.548;18.828;2022-07-15T05:44:08;98650.63;;;19.94;80.07
51239;BME280;38154;47.548;18.828;2022-07-15T05:46:34;98657.66;;;19.94;80.15
51239;BME280;38154;47.548;18.828;2022-07-15T05:49:00;98649.03;;;19.89;80.46
51239;BME280;38154;47.548;18.828;2022-07-15T05:51:26;98655.66;;;19.77;80.37
51239;BME280;38154;47.548;18.828;2022-07-15T05:53:52;98693.84;;;19.70;81.24
51239;BME280;38154;47.548;18.828;2022-07-15T05:56:18;98717.16;;;19.58;82.07
51239;BME280;38154;47.548;18.828;2022-07-15T05:58:44;98710.28;;;19.54;83.53
51239;BME280;38154;47.548;18.828;2022-07-15T06:01:09;98710.91;;;19.61;83.90
51239;BME280;38154;47.548;18.828;2022-07-15T06:03:35;98714.75;;;19.52;84.68
51239;BME280;38154;47.548;18.828;2022-07-15T06:06:02;98705.94;;;19.52;84.62
51239;BME280;38154;47.548;18.828;2022-07-15T06:08:29;98700.81;;;19.47;84.81
51239;BME280;38154;47.548;18.828;2022-07-15T06:10:55;98695.69;;;19.68;84.42
51239;BME280;38154;47.548;18.828;2022-07-15T06:13:21;98693.84;;;19.70;83.73
51239;BME280;38154;47.548;18.828;2022-07-15T06:15:47;98688.28;;;19.52;85.18
51239;BME280;38154;47.548;18.828;2022-07-15T06:18:13;98684.41;;;19.62;85.13
51239;BME280;38154;47.548;18.828;2022-07-15T06:20:39;98686.12;;;19.63;84.89
51239;BME280;38154;47.548;18.828;2022-07-15T06:23:05;98692.50;;;19.58;85.63
51239;BME280;38154;47.548;18.828;2022-07-15T06:25:31;98694.28;;;19.82;84.82
51239;BME280;38154;47.548;18.828;2022-07-15T06:27:57;98674.44;;;19.94;83.95
51239;BME280;38154;47.548;18.828;2022-07-15T06:30:23;98684.44;;;19.86;84.00
51239;BME280;38154;47.548;18.828;2022-07-15T06:33:04;98677.47;;;19.83;84.54
51239;BME280;38154;47.548;18.828;2022-07-15T06:35:34;98671.69;;;19.96;83.71
51239;BME280;38154;47.548;18.828;2022-07-15T06:38:02;98686.38;;;20.05;83.21
51239;BME280;38154;47.548;18.828;2022-07-15T06:40:28;98682.06;;;20.02;82.76
51239;BME280;38154;47.548;18.828;2022-07-15T06:42:54;98685.44;;;20.06;83.16
51239;BME280;38154;47.548;18.828;2022-07-15T06:45:19;98662.22;;;19.90;83.69
51239;BME280;38154;47.548;18.828;2022-07-15T06:47:45;98673.03;;;19.84;84.03
51239;BME280;38154;47.548;18.828;2022-07-15T06:50:11;98700.84;;;19.71;84.73
51239;BME280;38154;47.548;18.828;2022-07-15T06:52:37;98737.03;;;19.45;86.54
51239;BME280;38154;47.548;18.828;2022-07-15T06:55:04;98770.22;;;19.28;89.59
51239;BME280;38154;47.548;18.828;2022-07-15T06:57:30;98791.88;;;19.13;91.50
51239;BME280;38154;47.548;18.828;2022-07-15T06:59:55;98763.63;;;19.15;91.07
51239;BME280;38154;47.548;18.828;2022-07-15T07:02:22;98781.06;;;19.21;89.88
51239;BME280;38154;47.548;18.828;2022-07-15T07:04:48;98786.12;;;19.27;89.15
51239;BME280;38154;47.548;18.828;2022-07-15T07:07:14;98789.00;;;19.21;89.87
51239;BME280;38154;47.548;18.828;2022-07-15T07:09:40;98809.38;;;19.17;90.03
51239;BME280;38154;47.548;18.828;2022-07-15T07:12:06;98831.00;;;19.02;90.61
51239;BME280;38154;47.548;18.828;2022-07-15T07:14:32;98839.00;;;19.00;91.22
51239;BME280;38154;47.548;18.828;2022-07-15T07:16:58;98843.31;;;19.03;90.73
51239;BME280;38154;47.548;18.828;2022-07-15T07:19:23;98838.91;;;19.03;90.89
51239;BME280;38154;47.548;18.828;2022-07-15T07:21:49;98837.28;;;19.26;89.74
51239;BME280;38154;47.548;18.828;2022-07-15T07:24:15;98825.00;;;19.50;88.01
51239;BME280;38154;47.548;18.828;2022-07-15T07:26:41;98829.66;;;19.69;86.16
51239;BME280;38154;47.548;18.828;2022-07-15T07:29:07;98819.22;;;19.91;85.04
51239;BME280;38154;47.548;18.828;2022-07-15T07:31:33;98804.84;;;19.98;84.43
51239;BME280;38154;47.548;18.828;2022-07-15T07:33:59;98797.31;;;20.11;83.52
51239;BME280;38154;47.548;18.828;2022-07-15T07:36:25;98795.53;;;20.11;82.63
51239;BME280;38154;47.548;18.828;2022-07-15T07:38:51;98783.09;;;20.13;81.98
51239;BME280;38154;47.548;18.828;2022-07-15T07:41:18;98790.47;;;20.29;80.69
51239;BME280;38154;47.548;18.828;2022-07-15T07:43:44;98791.25;;;20.31;80.38
51239;BME280;38154;47.548;18.828;2022-07-15T07:46:11;98790.19;;;20.36;79.93
51239;BME280;38154;47.548;18.828;2022-07-15T07:48:38;98780.59;;;20.32;79.65
51239;BME280;38154;47.548;18.828;2022-07-15T07:51:05;98775.38;;;20.31;79.54
51239;BME280;38154;47.548;18.828;2022-07-15T07:53:31;98788.66;;;20.29;79.64
51239;BME280;38154;47.548;18.828;2022-07-15T07:55:57;98778.16;;;20.28;79.97
51239;BME280;38154;47.548;18.828;2022-07-15T07:58:23;98770.66;;;20.15;80.95
51239;BME280;38154;47.548;18.828;2022-07-15T08:00:49;98765.25;;;20.18;80.94
51239;BME280;38154;47.548;18.828;2022-07-15T08:03:17;98780.25;;;20.19;81.18
51239;BME280;38154;47.548;18.828;2022-07-15T08:05:43;98790.63;;;20.24;81.20
51239;BME280;38154;47.548;18.828;2022-07-15T08:08:12;98816.09;;;20.28;82.26
51239;BME280;38154;47.548;18.828;2022-07-15T08:10:47;98826.63;;;20.30;84.02
51239;BME280;38154;47.548;18.828;2022-07-15T08:13:14;98815.03;;;20.32;83.27
51239;BME280;38154;47.548;18.828;2022-07-15T08:15:41;98806.44;;;20.49;83.47
51239;BME280;38154;47.548;18.828;2022-07-15T08:18:07;98802.25;;;20.67;82.89
51239;BME280;38154;47.548;18.828;2022-07-15T08:20:33;98797.94;;;20.87;80.87
51239;BME280;38154;47.548;18.828;2022-07-15T08:22:59;98805.81;;;21.10;79.88
51239;BME280;38154;47.548;18.828;2022-07-15T08:25:29;98805.88;;;21.52;78.08
51239;BME280;38154;47.548;18.828;2022-07-15T08:27:56;98811.94;;;22.15;74.10
51239;BME280;38154;47.548;18.828;2022-07-15T08:30:22;98821.31;;;22.62;72.94
51239;BME280;38154;47.548;18.828;2022-07-15T08:32:48;98819.09;;;22.91;70.26
51239;BME280;38154;47.548;18.828;2022-07-15T08:35:14;98814.34;;;22.78;69.97
51239;BME280;38154;47.548;18.828;2022-07-15T08:37:40;98827.16;;;22.51;71.39
51239;BME280;38154;47.548;18.828;2022-07-15T08:40:06;98813.25;;;22.26;73.57
51239;BME280;38154;47.548;18.828;2022-07-15T08:42:35;98819.91;;;22.15;75.39
51239;BME280;38154;47.548;18.828;2022-07-15T08:45:03;98838.19;;;21.82;77.01
51239;BME280;38154;47.548;18.828;2022-07-15T08:47:31;98857.72;;;21.60;77.99
51239;BME280;38154;47.548;18.828;2022-07-15T08:49:57;98868.28;;;21.62;78.60
51239;BME280;38154;47.548;18.828;2022-07-15T08:52:24;98869.12;;;21.62;77.73
51239;BME280;38154;47.548;18.828;2022-07-15T08:54:50;98856.72;;;21.63;76.86
51239;BME280;38154;47.548;18.828;2022-07-15T08:57:17;98851.81;;;21.54;76.62
51239;BME280;38154;47.548;18.828;2022-07-15T08:59:44;98834.66;;;21.40;75.46
51239;BME280;38154;47.548;18.828;2022-07-15T09:02:12;98808.47;;;21.53;72.62
51239;BME280;38154;47.548;18.828;2022-07-15T09:05:18;98841.28;;;21.52;72.96
51239;BME280;38154;47.548;18.828;2022-07-15T09:10:16;98882.69;;;21.97;73.28
51239;BME280;38154;47.548;18.828;2022-07-15T09:12:42;98887.31;;;22.13;70.81
51239;BME280;38154;47.548;18.828;2022-07-15T09:15:08;98875.38;;;22.02;70.81
51239;BME280;38154;47.548;18.828;2022-07-15T09:17:34;98861.38;;;21.78;71.05
51239;BME280;38154;47.548;18.828;2022-07-15T09:20:03;98853.28;;;21.81;69.15
51239;BME280;38154;47.548;18.828;2022-07-15T09:22:33;98861.03;;;21.86;69.70
51239;BME280;38154;47.548;18.828;2022-07-15T09:25:05;98867.94;;;21.70;70.31
51239;BME280;38154;47.548;18.828;2022-07-15T09:27:40;98871.47;;;21.91;67.86
51239;BME280;38154;47.548;18.828;2022-07-15T09:30:22;98873.84;;;22.17;66.44
51239;BME280;38154;47.548;18.828;2022-07-15T09:33:15;98868.38;;;22.41;64.67
51239;BME280;38154;47.548;18.828;2022-07-15T09:39:02;98872.34;;;23.08;61.34
51239;BME280;38154;47.548;18.828;2022-07-15T09:41:38;98859.97;;;23.44;59.89
51239;BME280;38154;47.548;18.828;2022-07-15T09:46:46;98870.16;;;24.05;54.71
51239;BME280;38154;47.548;18.828;2022-07-15T09:51:59;98877.38;;;23.86;54.13
51239;BME280;38154;47.548;18.828;2022-07-15T09:54:39;98884.25;;;23.73;53.78
51239;BME280;38154;47.548;18.828;2022-07-15T09:57:07;98897.69;;;23.88;52.38
51239;BME280;38154;47.548;18.828;2022-07-15T09:59:34;98888.19;;;24.00;45.81
51239;BME280;38154;47.548;18.828;2022-07-15T10:02:00;98861.41;;;24.03;41.54
51239;BME280;38154;47.548;18.828;2022-07-15T10:04:27;98836.34;;;23.90;41.87
51239;BME280;38154;47.548;18.828;2022-07-15T10:06:54;98803.38;;;23.75;42.51
51239;BME280;38154;47.548;18.828;2022-07-15T10:09:26;98793.19;;;23.83;41.37
51239;BME280;38154;47.548;18.828;2022-07-15T10:11:58;98819.19;;;23.78;41.40
51239;BME280;38154;47.548;18.828;2022-07-15T10:17:18;98845.88;;;23.77;41.63
51239;BME280;38154;47.548;18.828;2022-07-15T10:30:04;98817.72;;;24.39;39.55
51239;BME280;38154;47.548;18.828;2022-07-15T10:35:51;98812.03;;;24.79;37.36
51239;BME280;38154;47.548;18.828;2022-07-15T10:38:33;98810.94;;;26.89;34.34
51239;BME280;38154;47.548;18.828;2022-07-15T10:41:02;98814.81;;;30.00;30.90
51239;BME280;38154;47.548;18.828;2022-07-15T10:43:44;98816.84;;;32.26;26.72
51239;BME280;38154;47.548;18.828;2022-07-15T10:48:45;98823.91;;;33.87;23.70
51239;BME280;38154;47.548;18.828;2022-07-15T10:51:12;98821.94;;;32.60;24.54
51239;BME280;38154;47.548;18.828;2022-07-15T10:53:46;98833.16;;;31.61;25.03
51239;BME280;38154;47.548;18.828;2022-07-15T10:56:35;98834.37;;;30.70;25.56
51239;BME280;38154;47.548;18.828;2022-07-15T10:59:12;98830.09;;;30.33;26.43
51239;BME280;38154;47.548;18.828;2022-07-15T11:01:44;98829.34;;;29.62;26.56
51239;BME280;38154;47.548;18.828;2022-07-15T11:04:16;98830.62;;;29.81;26.93
51239;BME280;38154;47.548;18.828;2022-07-15T11:14:59;98841.50;;;27.94;28.47
51239;BME280;38154;47.548;18.828;2022-07-15T11:20:08;98830.59;;;27.70;27.97
51239;BME280;38154;47.548;18.828;2022-07-15T11:22:39;98831.56;;;27.69;27.05
51239;BME280;38154;47.548;18.828;2022-07-15T11:25:07;98832.56;;;27.93;27.77
51239;BME280;38154;47.548;18.828;2022-07-15T11:27:41;98822.38;;;27.86;27.95
51239;BME280;38154;47.548;18.828;2022-07-15T11:30:07;98825.72;;;28.02;28.60
51239;BME280;38154;47.548;18.828;2022-07-15T11:32:33;98825.72;;;28.15;29.44
51239;BME280;38154;47.548;18.828;2022-07-15T11:35:02;98835.56;;;27.89;27.81
51239;BME280;38154;47.548;18.828;2022-07-15T11:37:31;98833.34;;;27.96;27.57
51239;BME280;38154;47.548;18.828;2022-07-15T11:40:16;98834.41;;;28.06;27.95
51239;BME280;38154;47.548;18.828;2022-07-15T11:43:21;98836.31;;;28.17;27.85
51239;BME280;38154;47.548;18.828;2022-07-15T11:46:05;98828.72;;;28.86;28.06
51239;BME280;38154;47.548;18.828;2022-07-15T11:48:36;98828.38;;;28.28;28.12
51239;BME280;38154;47.548;18.828;2022-07-15T11:51:03;98831.22;;;27.61;28.36
51239;BME280;38154;47.548;18.828;2022-07-15T11:53:43;98830.75;;;27.14;28.22
51239;BME280;38154;47.548;18.828;2022-07-15T11:56:11;98829.00;;;27.00;27.91
51239;BME280;38154;47.548;18.828;2022-07-15T11:58:40;98837.50;;;26.92;28.35
51239;BME280;38154;47.548;18.828;2022-07-15T12:01:09;98833.53;;;26.71;28.15
51239;BME280;38154;47.548;18.828;2022-07-15T12:03:40;98833.84;;;26.37;29.23
51239;BME280;38154;47.548;18.828;2022-07-15T12:08:42;98831.62;;;26.58;28.55
51239;BME280;38154;47.548;18.828;2022-07-15T12:13:41;98840.31;;;28.86;25.31
51239;BME280;38154;47.548;18.828;2022-07-15T12:16:07;98837.63;;;29.23;25.16
51239;BME280;38154;47.548;18.828;2022-07-15T12:18:34;98839.75;;;29.67;24.71
51239;BME280;38154;47.548;18.828;2022-07-15T12:21:00;98830.19;;;29.51;25.07
51239;BME280;38154;47.548;18.828;2022-07-15T12:23:26;98830.56;;;29.58;24.87
51239;BME280;38154;47.548;18.828;2022-07-15T12:26:06;98825.72;;;29.39;25.24
51239;BME280;38154;47.548;18.828;2022-07-15T12:28:33;98819.28;;;29.41;25.19
51239;BME280;38154;47.548;18.828;2022-07-15T12:30:59;98818.47;;;29.64;25.26
51239;BME280;38154;47.548;18.828;2022-07-15T12:33:25;98813.03;;;29.76;24.36
51239;BME280;38154;47.548;18.828;2022-07-15T12:36:15;98819.44;;;29.63;23.53
51239;BME280;38154;47.548;18.828;2022-07-15T12:38:42;98819.16;;;29.54;24.02
51239;BME280;38154;47.548;18.828;2022-07-15T12:41:21;98827.50;;;29.27;23.79
51239;BME280;38154;47.548;18.828;2022-07-15T12:43:59;98819.84;;;29.34;23.64
51239;BME280;38154;47.548;18.828;2022-07-15T12:52:18;98814.91;;;28.79;23.32
51239;BME280;38154;47.548;18.828;2022-07-15T12:54:45;98829.53;;;28.49;24.47
51239;BME280;38154;47.548;18.828;2022-07-15T12:57:31;98820.75;;;28.47;24.03
51239;BME280;38154;47.548;18.828;2022-07-15T13:00:00;98829.53;;;28.49;24.42
51239;BME280;38154;47.548;18.828;2022-07-15T13:02:27;98824.94;;;28.64;23.14
51239;BME280;38154;47.548;18.828;2022-07-15T13:04:53;98827.53;;;28.90;22.52
51239;BME280;38154;47.548;18.828;2022-07-15T13:07:19;98832.34;;;28.98;22.49
51239;BME280;38154;47.548;18.828;2022-07-15T13:09:45;98827.84;;;28.85;23.23
51239;BME280;38154;47.548;18.828;2022-07-15T13:12:12;98826.28;;;28.83;23.42
51239;BME280;38154;47.548;18.828;2022-07-15T13:14:39;98830.91;;;28.55;23.40
51239;BME280;38154;47.548;18.828;2022-07-15T13:17:06;98836.13;;;28.33;23.43
51239;BME280;38154;47.548;18.828;2022-07-15T13:19:32;98832.88;;;27.89;23.55
51239;BME280;38154;47.548;18.828;2022-07-15T13:21:59;98839.44;;;27.45;23.42
51239;BME280;38154;47.548;18.828;2022-07-15T13:24:25;98844.28;;;27.25;24.51
51239;BME280;38154;47.548;18.828;2022-07-15T13:26:51;98840.31;;;27.45;25.54
51239;BME280;38154;47.548;18.828;2022-07-15T13:29:17;98842.19;;;27.83;26.36
51239;BME280;38154;47.548;18.828;2022-07-15T13:31:43;98831.38;;;28.23;26.00
51239;BME280;38154;47.548;18.828;2022-07-15T13:34:09;98835.78;;;28.11;23.84
51239;BME280;38154;47.548;18.828;2022-07-15T13:36:35;98843.06;;;27.97;24.44
51239;BME280;38154;47.548;18.828;2022-07-15T13:39:02;98843.69;;;27.87;24.32
51239;BME280;38154;47.548;18.828;2022-07-15T13:41:28;98840.13;;;27.87;24.34
51239;BME280;38154;47.548;18.828;2022-07-15T13:43:54;98851.31;;;27.81;23.85
51239;BME280;38154;47.548;18.828;2022-07-15T13:46:20;98847.31;;;27.61;23.03